createdAt,value
2018-06-14T00:01:08.883Z,74.62
2018-06-14T00:03:37.687Z,76.47
2018-06-14T00:06:06.719Z,78.50
2018-06-14T00:08:35.315Z,79.31
2018-06-14T00:11:03.925Z,80.67
2018-06-14T00:13:32.571Z,80.76
2018-06-14T00:16:01.301Z,80.87
2018-06-14T00:18:29.884Z,81.00
2018-06-14T00:20:58.609Z,80.80
2018-06-14T00:23:27.261Z,81.24
2018-06-14T00:25:55.852Z,80.95
2018-06-14T00:28:24.432Z,80.95
2018-06-14T00:30:53.340Z,81.16
2018-06-14T00:33:21.897Z,81.37
2018-06-14T00:35:50.666Z,81.69
2018-06-14T00:38:19.309Z,81.76
2018-06-14T00:40:47.986Z,81.76
2018-06-14T00:43:18.468Z,82.04
2018-06-14T00:45:48.744Z,81.71
2018-06-14T00:48:18.296Z,81.65
2018-06-14T00:50:56.482Z,81.90
2018-06-14T01:04:25.799Z,82.44
2018-06-14T01:06:55.586Z,82.60
2018-06-14T01:10:20.162Z,82.80
2018-06-14T01:17:15.891Z,82.95
2018-06-14T01:24:32.873Z,83.27
2018-06-14T01:27:06.723Z,83.96
2018-06-14T01:34:57.727Z,83.75
2018-06-14T01:41:22.030Z,83.78
2018-06-14T01:46:55.899Z,84.08
2018-06-14T01:49:31.521Z,84.43
2018-06-14T01:52:07.274Z,84.28
2018-06-14T01:54:49.748Z,84.49
2018-06-14T01:57:46.319Z,84.72
2018-06-14T02:00:14.942Z,84.83
2018-06-14T02:02:43.555Z,84.71
2018-06-14T02:05:12.110Z,85.02
2018-06-14T02:07:40.672Z,85.45
2018-06-14T02:10:09.229Z,85.54
2018-06-14T02:12:37.816Z,85.73
2018-06-14T02:15:06.582Z,85.97
2018-06-14T02:17:35.153Z,85.97
2018-06-14T02:20:03.722Z,85.99
2018-06-14T02:22:32.341Z,85.90
2018-06-14T02:25:01.032Z,85.62
2018-06-14T02:27:29.588Z,85.69
2018-06-14T02:29:58.244Z,85.47
2018-06-14T02:32:26.932Z,85.31
2018-06-14T02:34:55.640Z,85.37
2018-06-14T02:37:24.224Z,85.45
2018-06-14T02:39:52.813Z,85.24
2018-06-14T02:42:21.460Z,84.51
2018-06-14T02:44:50.342Z,83.93
2018-06-14T02:47:18.953Z,83.23
2018-06-14T02:49:47.592Z,82.50
2018-06-14T02:52:16.141Z,82.14
2018-06-14T02:54:44.954Z,81.36
2018-06-14T02:57:13.729Z,81.27
2018-06-14T02:59:43.026Z,80.98
2018-06-14T03:02:11.621Z,80.54
2018-06-14T03:04:40.224Z,80.40
2018-06-14T03:07:08.817Z,79.92
2018-06-14T03:09:37.485Z,79.94
2018-06-14T03:12:06.049Z,80.65
2018-06-14T03:14:34.736Z,80.47
2018-06-14T03:17:03.325Z,80.87
2018-06-14T03:19:31.905Z,80.82
2018-06-14T03:22:00.635Z,80.93
2018-06-14T03:24:29.396Z,80.51
2018-06-14T03:26:58.008Z,79.92
2018-06-14T03:29:26.617Z,79.56
2018-06-14T03:31:55.226Z,79.81
2018-06-14T03:34:23.832Z,79.86
2018-06-14T03:36:52.673Z,79.82
2018-06-14T03:39:21.241Z,79.70
2018-06-14T03:41:49.912Z,80.04
2018-06-14T03:44:18.565Z,80.26
2018-06-14T03:46:47.241Z,80.27
2018-06-14T03:49:16.064Z,80.24
2018-06-14T03:51:44.715Z,79.91
2018-06-14T03:54:13.289Z,79.92
2018-06-14T03:56:41.904Z,79.66
2018-06-14T03:59:10.552Z,80.03
2018-06-14T04:01:39.111Z,79.80
2018-06-14T04:04:07.697Z,80.08
2018-06-14T04:06:36.283Z,80.53
2018-06-14T04:09:06.608Z,80.21
2018-06-14T04:11:35.344Z,79.74
2018-06-14T04:14:04.156Z,79.36
2018-06-14T04:16:32.817Z,79.76
2018-06-14T04:19:01.482Z,80.09
2018-06-14T04:21:30.320Z,80.50
2018-06-14T04:23:59.325Z,80.22
2018-06-14T04:26:28.038Z,80.87
2018-06-14T04:28:56.961Z,81.10
2018-06-14T04:31:25.984Z,81.10
2018-06-14T04:33:54.761Z,80.43
2018-06-14T04:36:23.393Z,80.83
2018-06-14T04:38:52.219Z,80.69
2018-06-14T04:41:21.028Z,80.73
2018-06-14T04:43:49.912Z,81.34
2018-06-14T04:46:20.730Z,81.64
2018-06-14T04:48:50.537Z,81.77
2018-06-14T04:51:29.542Z,81.26
2018-06-14T04:54:38.091Z,81.54
2018-06-14T05:00:02.872Z,80.84
2018-06-14T05:02:31.544Z,80.51
2018-06-14T05:05:00.180Z,81.11
2018-06-14T05:07:28.821Z,81.06
2018-06-14T05:09:57.568Z,80.72
2018-06-14T05:12:26.216Z,80.04
2018-06-14T05:14:54.983Z,79.95
2018-06-14T05:17:23.586Z,80.19
2018-06-14T05:19:52.286Z,79.97
2018-06-14T05:22:20.986Z,80.08
2018-06-14T05:24:49.549Z,79.87
2018-06-14T05:27:18.270Z,79.84
2018-06-14T05:29:48.125Z,79.93
2018-06-14T05:32:16.884Z,80.11
2018-06-14T05:34:45.958Z,80.26
2018-06-14T05:37:14.766Z,79.39
2018-06-14T05:39:43.605Z,79.74
2018-06-14T05:42:13.396Z,79.52
2018-06-14T05:44:43.716Z,79.69
2018-06-14T05:50:29.938Z,79.18
2018-06-14T05:56:38.167Z,78.71
2018-06-14T06:02:05.015Z,78.54
2018-06-14T06:12:11.469Z,78.00
2018-06-14T06:14:40.140Z,77.52
2018-06-14T06:17:08.867Z,77.18
2018-06-14T06:19:37.735Z,77.43
2018-06-14T06:22:06.644Z,75.82
2018-06-14T06:24:39.401Z,76.60
2018-06-14T06:27:08.065Z,74.82
2018-06-14T06:29:36.855Z,74.93
2018-06-14T06:32:05.843Z,75.07
2018-06-14T06:34:34.645Z,74.30
2018-06-14T06:37:03.702Z,73.89
2018-06-14T06:39:32.555Z,73.01
2018-06-14T06:42:01.518Z,73.03
2018-06-14T06:44:30.321Z,73.18
2018-06-14T06:47:04.772Z,73.61
2018-06-14T06:49:33.728Z,72.70
2018-06-14T06:52:03.008Z,72.03
2018-06-14T06:54:31.725Z,71.88
2018-06-14T06:57:04.082Z,72.47
2018-06-14T06:59:33.710Z,72.78
2018-06-14T07:02:06.146Z,73.00
2018-06-14T07:04:38.682Z,71.01
2018-06-14T07:07:08.828Z,71.19
2018-06-14T07:09:47.068Z,71.36
2018-06-14T07:12:16.450Z,71.22
2018-06-14T07:14:47.975Z,71.36
2018-06-14T07:20:00.713Z,70.19
2018-06-14T07:22:30.073Z,69.47
2018-06-14T07:24:59.356Z,69.08
2018-06-14T07:27:28.057Z,69.52
2018-06-14T07:29:58.325Z,69.14
2018-06-14T07:32:31.088Z,69.30
2018-06-14T07:34:59.677Z,68.76
2018-06-14T07:37:28.676Z,68.07
2018-06-14T07:39:57.572Z,68.50
2018-06-14T07:42:26.590Z,67.12
2018-06-14T07:44:55.952Z,67.68
2018-06-14T07:47:25.308Z,67.66
2018-06-14T07:49:54.392Z,66.62
2018-06-14T07:52:23.634Z,66.81
2018-06-14T07:54:53.284Z,66.96
2018-06-14T07:57:25.571Z,65.72
2018-06-14T07:59:54.370Z,66.30
2018-06-14T08:02:23.083Z,66.19
2018-06-14T08:04:51.993Z,65.36
2018-06-14T08:07:20.573Z,65.26
2018-06-14T08:09:49.272Z,64.10
2018-06-14T08:12:17.963Z,64.40
2018-06-14T08:14:46.560Z,64.66
2018-06-14T08:17:15.227Z,63.35
2018-06-14T08:19:43.904Z,63.63
2018-06-14T08:22:12.538Z,61.21
2018-06-14T08:24:41.293Z,60.57
2018-06-14T08:27:10.094Z,61.68
2018-06-14T08:29:38.685Z,60.10
2018-06-14T08:32:07.413Z,60.76
2018-06-14T08:34:36.056Z,59.71
2018-06-14T08:37:04.751Z,57.51
2018-06-14T08:39:33.470Z,58.51
2018-06-14T08:42:02.072Z,57.62
2018-06-14T08:44:30.640Z,54.75
2018-06-14T08:46:59.404Z,55.52
2018-06-14T08:49:28.030Z,56.40
2018-06-14T08:51:56.855Z,56.57
2018-06-14T08:54:25.493Z,55.24
2018-06-14T08:56:54.230Z,53.79
2018-06-14T08:59:23.289Z,54.21
2018-06-14T09:01:52.018Z,54.56
2018-06-14T09:04:21.819Z,54.94
2018-06-14T09:06:50.725Z,54.94
2018-06-14T09:09:19.374Z,53.91
2018-06-14T09:11:48.135Z,54.57
2018-06-14T09:14:17.127Z,54.23
2018-06-14T09:16:45.843Z,54.64
2018-06-14T09:19:14.605Z,54.38
2018-06-14T09:21:43.341Z,53.47
2018-06-14T09:24:12.018Z,52.45
2018-06-14T09:26:40.726Z,53.30
2018-06-14T09:29:09.633Z,52.65
2018-06-14T09:31:38.363Z,52.70
2018-06-14T09:34:07.741Z,52.90
2018-06-14T09:36:36.500Z,52.43
2018-06-14T09:39:07.949Z,52.59
2018-06-14T09:41:36.637Z,52.62
2018-06-14T09:44:05.368Z,52.34
2018-06-14T09:46:34.078Z,52.02
2018-06-14T09:49:07.940Z,50.70
2018-06-14T09:51:36.659Z,49.87
2018-06-14T09:54:05.608Z,50.22
2018-06-14T09:56:35.024Z,50.95
2018-06-14T09:59:03.732Z,50.13
2018-06-14T10:01:32.341Z,49.86
2018-06-14T10:04:01.478Z,49.25
2018-06-14T10:06:30.064Z,50.49
2018-06-14T10:08:58.751Z,47.82
2018-06-14T10:11:27.586Z,48.74
2018-06-14T10:13:56.150Z,48.34
2018-06-14T10:16:25.027Z,49.59
2018-06-14T10:18:54.048Z,50.02
2018-06-14T10:21:22.693Z,48.73
2018-06-14T10:23:51.300Z,49.61
2018-06-14T10:26:20.004Z,49.10
2018-06-14T10:28:48.690Z,47.01
2018-06-14T10:31:17.388Z,47.34
2018-06-14T10:33:46.164Z,48.75
2018-06-14T10:36:15.928Z,50.23
2018-06-14T10:38:44.656Z,50.44
2018-06-14T10:41:13.336Z,47.53
2018-06-14T10:43:42.370Z,48.11
2018-06-14T10:46:10.968Z,48.32
2018-06-14T10:48:39.606Z,48.17
2018-06-14T10:51:08.417Z,48.21
2018-06-14T10:53:36.985Z,47.93
2018-06-14T10:56:05.568Z,49.29
2018-06-14T10:58:34.156Z,48.94
2018-06-14T11:01:02.738Z,49.16
2018-06-14T11:03:31.441Z,49.20
2018-06-14T11:06:00.006Z,49.15
2018-06-14T11:08:28.898Z,47.92
2018-06-14T11:10:57.465Z,47.58
2018-06-14T11:13:26.045Z,46.12
2018-06-14T11:15:54.592Z,45.66
2018-06-14T11:18:23.232Z,46.20
2018-06-14T11:20:51.783Z,45.81
2018-06-14T11:23:20.386Z,46.30
2018-06-14T11:25:48.944Z,45.95
2018-06-14T11:28:17.489Z,45.41
2018-06-14T11:30:46.129Z,44.40
2018-06-14T11:33:14.749Z,44.57
2018-06-14T11:35:43.304Z,44.48
2018-06-14T11:38:11.900Z,46.06
2018-06-14T11:40:40.475Z,44.91
2018-06-14T11:43:09.192Z,45.78
2018-06-14T11:45:37.776Z,44.13
2018-06-14T11:48:06.606Z,44.38
2018-06-14T11:50:35.155Z,43.68
2018-06-14T11:53:03.760Z,44.56
2018-06-14T11:55:32.380Z,44.19
2018-06-14T11:58:01.018Z,44.73
2018-06-14T12:00:29.599Z,44.83
2018-06-14T12:02:58.242Z,44.31
2018-06-14T12:05:26.822Z,45.15
2018-06-14T12:07:55.386Z,43.92
2018-06-14T12:10:24.002Z,46.28
2018-06-14T12:12:52.553Z,45.19
2018-06-14T12:15:21.256Z,45.09
2018-06-14T12:17:49.808Z,43.61
2018-06-14T12:20:18.401Z,44.02
2018-06-14T12:22:47.016Z,44.34
2018-06-14T12:25:15.623Z,43.01
2018-06-14T12:27:44.175Z,42.96
2018-06-14T12:30:12.805Z,46.04
2018-06-14T12:32:41.372Z,45.61
2018-06-14T12:35:10.024Z,45.69
2018-06-14T12:37:38.661Z,44.49
2018-06-14T12:40:07.222Z,43.72
2018-06-14T12:42:35.876Z,42.85
2018-06-14T12:45:04.580Z,43.65
2018-06-14T12:47:33.411Z,44.21
2018-06-14T12:50:01.981Z,43.58
2018-06-14T12:52:30.810Z,43.24
2018-06-14T12:54:59.372Z,43.38
2018-06-14T12:57:27.953Z,43.01
2018-06-14T12:59:56.755Z,43.83
2018-06-14T13:02:25.344Z,42.29
2018-06-14T13:04:54.068Z,42.83
2018-06-14T13:07:22.637Z,43.86
2018-06-14T13:09:51.221Z,43.52
2018-06-14T13:12:19.830Z,43.95
2018-06-14T13:14:48.396Z,43.84
2018-06-14T13:17:17.175Z,45.13
2018-06-14T13:19:45.960Z,44.45
2018-06-14T13:22:14.629Z,43.81
2018-06-14T13:24:44.212Z,43.78
2018-06-14T13:27:13.963Z,43.69
2018-06-14T13:29:43.021Z,43.86
2018-06-14T13:32:11.953Z,43.85
2018-06-14T13:34:40.940Z,43.86
2018-06-14T13:37:09.559Z,44.24
2018-06-14T13:39:38.239Z,44.46
2018-06-14T13:42:06.943Z,44.94
2018-06-14T13:44:35.599Z,45.29
2018-06-14T13:47:04.201Z,44.84
2018-06-14T13:49:32.849Z,44.62
2018-06-14T13:52:02.013Z,44.47
2018-06-14T13:54:30.633Z,43.82
2018-06-14T13:56:59.235Z,43.79
2018-06-14T13:59:27.868Z,43.36
2018-06-14T14:01:56.517Z,42.95
2018-06-14T14:04:25.184Z,44.11
2018-06-14T14:06:57.928Z,44.27
2018-06-14T14:09:26.512Z,44.12
2018-06-14T14:11:55.273Z,44.88
2018-06-14T14:14:23.839Z,45.34
2018-06-14T14:16:52.433Z,45.85
2018-06-14T14:19:21.010Z,46.89
2018-06-14T14:21:49.660Z,46.73
2018-06-14T14:24:18.272Z,47.46
2018-06-14T14:26:46.878Z,46.17
2018-06-14T14:29:15.482Z,47.30
2018-06-14T14:31:44.152Z,47.52
2018-06-14T14:34:12.703Z,46.04
2018-06-14T14:36:41.367Z,47.11
2018-06-14T14:39:11.507Z,48.25
2018-06-14T14:41:40.251Z,48.28
2018-06-14T14:44:08.898Z,47.81
2018-06-14T14:46:37.579Z,46.39
2018-06-14T14:49:06.142Z,47.16
2018-06-14T14:51:34.890Z,48.55
2018-06-14T14:54:03.554Z,50.32
2018-06-14T14:56:32.105Z,49.38
2018-06-14T14:59:00.704Z,50.12
2018-06-14T15:01:29.433Z,52.20
2018-06-14T15:03:58.027Z,52.44
2018-06-14T15:06:26.564Z,53.25
2018-06-14T15:08:55.214Z,54.77
2018-06-14T15:11:24.444Z,54.49
2018-06-14T15:13:53.229Z,56.29
2018-06-14T15:16:21.857Z,57.80
2018-06-14T15:18:50.457Z,59.77
2018-06-14T15:21:19.022Z,60.37
2018-06-14T15:23:47.689Z,60.46
2018-06-14T15:26:16.252Z,62.53
2018-06-14T15:28:44.836Z,61.18
2018-06-14T15:31:13.425Z,62.13
2018-06-14T15:33:42.116Z,61.17
2018-06-14T15:36:10.758Z,63.81
2018-06-14T15:38:39.620Z,62.91
2018-06-14T15:41:08.261Z,64.96
2018-06-14T15:43:36.964Z,65.12
2018-06-14T15:46:05.626Z,66.26
2018-06-14T15:48:34.301Z,69.18
2018-06-14T15:51:02.946Z,69.02
2018-06-14T15:53:31.575Z,70.84
2018-06-14T15:56:23.240Z,71.69
2018-06-14T15:58:52.347Z,73.39
2018-06-14T16:01:21.200Z,74.01
2018-06-14T16:03:49.899Z,74.78
2018-06-14T16:06:18.586Z,74.25
2018-06-14T16:08:47.157Z,75.72
2018-06-14T16:11:15.799Z,76.40
2018-06-14T16:13:44.436Z,76.51
2018-06-14T16:16:13.055Z,75.20
2018-06-14T16:18:41.629Z,76.28
2018-06-14T16:21:10.466Z,75.90
2018-06-14T16:23:38.997Z,75.54
2018-06-14T16:26:07.701Z,76.52
2018-06-14T16:28:36.287Z,77.46
2018-06-14T16:31:05.021Z,76.22
2018-06-14T16:33:33.611Z,75.95
2018-06-14T16:36:02.210Z,76.67
2018-06-14T16:38:31.047Z,76.28
2018-06-14T16:40:59.637Z,76.05
2018-06-14T16:43:28.400Z,76.52
2018-06-14T16:45:57.143Z,76.54
2018-06-14T16:48:25.884Z,77.04
2018-06-14T16:50:54.478Z,76.87
2018-06-14T16:53:23.173Z,76.83
2018-06-14T16:55:52.160Z,77.86
2018-06-14T16:58:20.865Z,78.92
2018-06-14T17:00:49.649Z,78.60
2018-06-14T17:03:18.393Z,78.61
2018-06-14T17:05:47.172Z,79.60
2018-06-14T17:08:15.995Z,79.90
2018-06-14T17:10:44.799Z,79.68
2018-06-14T17:13:13.631Z,80.74
2018-06-14T17:15:42.313Z,80.62
2018-06-14T17:18:10.929Z,81.51
2018-06-14T17:20:39.568Z,80.56
2018-06-14T17:23:08.158Z,81.18
2018-06-14T17:25:37.020Z,81.00
2018-06-14T17:28:05.633Z,81.90
2018-06-14T17:30:34.317Z,80.06
2018-06-14T17:33:02.906Z,81.25
2018-06-14T17:35:31.664Z,82.05
2018-06-14T17:38:00.563Z,82.46
2018-06-14T17:40:29.168Z,81.93
2018-06-14T17:42:58.062Z,81.36
2018-06-14T17:45:26.713Z,81.55
2018-06-14T17:47:55.288Z,81.64
2018-06-14T17:50:23.953Z,80.64
2018-06-14T17:52:53.021Z,80.82
2018-06-14T17:55:22.414Z,80.90
2018-06-14T17:57:51.629Z,81.35
2018-06-14T18:00:20.455Z,81.51
2018-06-14T18:02:49.174Z,81.61
2018-06-14T18:05:18.063Z,82.02
2018-06-14T18:07:46.860Z,81.18
2018-06-14T18:10:15.496Z,82.41
2018-06-14T18:12:44.260Z,82.10
2018-06-14T18:15:14.865Z,81.48
2018-06-14T18:17:43.626Z,81.58
2018-06-14T18:20:12.532Z,80.55
2018-06-14T18:22:41.329Z,81.13
2018-06-14T18:25:09.990Z,79.48
2018-06-14T18:27:38.664Z,79.96
2018-06-14T18:30:07.445Z,80.23
2018-06-14T18:32:36.081Z,80.27
2018-06-14T18:35:05.468Z,80.21
2018-06-14T18:37:34.257Z,80.01
2018-06-14T18:40:03.117Z,80.68
2018-06-14T18:42:31.828Z,80.89
2018-06-14T18:45:00.457Z,81.05
2018-06-14T18:47:29.070Z,81.02
2018-06-14T18:49:57.642Z,81.32
2018-06-14T18:52:26.585Z,81.18
2018-06-14T18:54:55.233Z,80.92
2018-06-14T18:57:23.843Z,80.35
2018-06-14T18:59:52.477Z,80.25
2018-06-14T19:02:21.768Z,80.14
2018-06-14T19:04:50.375Z,79.78
2018-06-14T19:07:18.927Z,79.66
2018-06-14T19:09:47.793Z,80.67
2018-06-14T19:12:16.443Z,79.96
2018-06-14T19:14:45.211Z,80.72
2018-06-14T19:17:14.228Z,80.38
2018-06-14T19:19:42.888Z,79.90
2018-06-14T19:22:11.452Z,81.60
2018-06-14T19:24:40.087Z,81.47
2018-06-14T19:27:08.686Z,81.60
2018-06-14T19:29:37.586Z,82.72
2018-06-14T19:32:06.300Z,83.53
2018-06-14T19:34:35.146Z,83.35
2018-06-14T19:37:04.576Z,84.06
2018-06-14T19:39:33.468Z,83.50
2018-06-14T19:42:02.103Z,83.31
2018-06-14T19:44:31.091Z,83.43
2018-06-14T19:46:59.799Z,82.80
2018-06-14T19:49:28.501Z,82.96
2018-06-14T19:51:57.527Z,83.07
2018-06-14T19:54:27.276Z,83.63
2018-06-14T19:56:55.967Z,83.06
2018-06-14T19:59:24.641Z,83.26
2018-06-14T20:01:53.651Z,83.50
2018-06-14T20:04:22.449Z,83.36
2018-06-14T20:06:51.352Z,84.00
2018-06-14T20:09:19.936Z,83.34
2018-06-14T20:11:48.644Z,83.60
2018-06-14T20:14:17.539Z,83.75
2018-06-14T20:16:46.419Z,84.26
2018-06-14T20:19:15.189Z,84.85
2018-06-14T20:21:44.022Z,85.40
2018-06-14T20:24:12.885Z,85.85
2018-06-14T20:26:41.832Z,86.11
2018-06-14T20:29:10.653Z,86.35
2018-06-14T20:31:39.582Z,86.50
2018-06-14T20:34:08.305Z,85.99
2018-06-14T20:36:37.163Z,85.73
2018-06-14T20:39:09.209Z,85.98
2018-06-14T20:41:38.329Z,85.50
2018-06-14T20:44:07.364Z,86.01
2018-06-14T20:46:36.085Z,85.48
2018-06-14T20:49:04.770Z,86.00
2018-06-14T20:51:33.403Z,85.37
2018-06-14T20:54:02.284Z,84.56
2018-06-14T20:56:30.994Z,83.77
2018-06-14T20:59:00.254Z,83.03
2018-06-14T21:01:28.840Z,83.18
2018-06-14T21:03:57.612Z,83.54
2018-06-14T21:06:26.889Z,83.63
2018-06-14T21:08:55.603Z,82.56
2018-06-14T21:11:24.225Z,82.40
2018-06-14T21:13:52.964Z,81.78
2018-06-14T21:16:21.909Z,82.03
2018-06-14T21:18:50.523Z,82.19
2018-06-14T21:21:19.066Z,83.13
2018-06-14T21:23:47.862Z,83.58
2018-06-14T21:26:16.477Z,82.50
2018-06-14T21:28:45.382Z,81.86
2018-06-14T21:31:14.086Z,82.85
2018-06-14T21:33:42.671Z,83.13
2018-06-14T21:36:11.373Z,83.75
2018-06-14T21:38:40.074Z,82.72
2018-06-14T21:41:08.701Z,83.47
2018-06-14T21:43:38.155Z,83.01
2018-06-14T21:46:06.880Z,83.31
2018-06-14T21:48:35.734Z,81.73
2018-06-14T21:51:04.705Z,81.61
2018-06-14T21:53:33.477Z,81.32
2018-06-14T21:56:02.466Z,81.26
2018-06-14T21:58:31.253Z,81.02
2018-06-14T22:00:59.936Z,82.63
2018-06-14T22:03:33.808Z,81.75
2018-06-14T22:06:02.433Z,82.00
2018-06-14T22:08:31.045Z,82.10
2018-06-14T22:10:59.597Z,82.24
2018-06-14T22:13:28.223Z,82.86
2018-06-14T22:15:56.792Z,82.12
2018-06-14T22:18:25.430Z,82.66
2018-06-14T22:20:54.061Z,82.64
2018-06-14T22:23:22.757Z,82.64
2018-06-14T22:25:51.589Z,82.82
2018-06-14T22:28:20.274Z,82.81
2018-06-14T22:30:49.229Z,83.20
2018-06-14T22:33:28.720Z,82.40
2018-06-14T22:35:57.305Z,82.86
2018-06-14T22:38:25.890Z,82.69
2018-06-14T22:40:54.484Z,83.68
2018-06-14T22:43:23.194Z,83.31
2018-06-14T22:45:52.152Z,83.00
2018-06-14T22:48:20.936Z,82.56
2018-06-14T22:51:00.412Z,82.98
2018-06-14T22:53:29.278Z,82.49
2018-06-14T22:55:58.108Z,82.74
2018-06-14T22:58:26.836Z,83.13
2018-06-14T23:01:31.286Z,82.58
2018-06-14T23:04:00.954Z,82.80
2018-06-14T23:06:29.743Z,82.78
2018-06-14T23:08:59.380Z,82.33
2018-06-14T23:11:28.094Z,83.24
2018-06-14T23:13:56.808Z,82.97
2018-06-14T23:16:25.743Z,82.39
2018-06-14T23:18:54.327Z,82.55
2018-06-14T23:21:22.957Z,82.90
2018-06-14T23:23:51.617Z,82.50
2018-06-14T23:26:20.180Z,82.23
2018-06-14T23:28:48.745Z,82.63
2018-06-14T23:31:17.472Z,82.60
2018-06-14T23:33:46.058Z,83.05
2018-06-14T23:36:14.644Z,82.61
2018-06-14T23:38:43.251Z,82.42
2018-06-14T23:41:12.278Z,83.07
2018-06-14T23:43:40.826Z,83.78
2018-06-14T23:46:09.391Z,82.72
2018-06-14T23:48:38.060Z,82.63
2018-06-14T23:51:06.743Z,82.57
2018-06-14T23:53:35.401Z,82.53
2018-06-14T23:56:04.042Z,82.99
2018-06-14T23:58:32.701Z,84.19
